createdAt,value
2023-05-04T00:00:31.837Z,14.23
2023-05-04T00:01:31.900Z,14.23
2023-05-04T00:02:32.037Z,14.20
2023-05-04T00:03:32.109Z,14.20
2023-05-04T00:04:32.044Z,14.19
2023-05-04T00:05:31.985Z,14.16
2023-05-04T00:06:32.092Z,14.15
2023-05-04T00:07:32.146Z,14.16
2023-05-04T00:08:32.152Z,14.14
2023-05-04T00:09:32.614Z,14.16
2023-05-04T00:10:32.263Z,14.17
2023-05-04T00:11:32.347Z,14.14
2023-05-04T00:12:32.408Z,14.14
2023-05-04T00:13:32.447Z,14.16
2023-05-04T00:14:32.547Z,14.16
2023-05-04T00:15:32.517Z,14.17
2023-05-04T00:16:32.572Z,14.16
2023-05-04T00:17:32.626Z,14.17
2023-05-04T00:18:32.533Z,14.17
2023-05-04T00:19:32.591Z,14.17
2023-05-04T00:20:32.594Z,14.18
2023-05-04T00:21:32.756Z,14.19
2023-05-04T00:22:32.756Z,14.18
2023-05-04T00:23:32.816Z,14.21
2023-05-04T00:24:32.872Z,14.22
2023-05-04T00:25:32.882Z,13.99
2023-05-04T00:26:32.889Z,14.00
2023-05-04T00:27:32.946Z,14.04
2023-05-04T00:28:33.056Z,14.05
2023-05-04T00:29:33.217Z,13.90
2023-05-04T00:30:33.135Z,13.51
2023-05-04T00:31:33.219Z,13.29
2023-05-04T00:32:33.188Z,13.20
2023-05-04T00:33:33.249Z,13.08
2023-05-04T00:34:33.241Z,13.02
2023-05-04T00:35:33.216Z,13.07
2023-05-04T00:36:33.266Z,13.17
2023-05-04T00:37:33.325Z,13.32
2023-05-04T00:38:33.383Z,13.41
2023-05-04T00:39:33.448Z,13.42
2023-05-04T00:40:33.505Z,13.15
2023-05-04T00:41:34.544Z,12.97
2023-05-04T00:42:33.605Z,12.88
2023-05-04T00:43:33.713Z,12.82
2023-05-04T00:44:34.159Z,12.67
2023-05-04T00:45:33.784Z,12.70
2023-05-04T00:46:33.992Z,12.67
2023-05-04T00:47:33.930Z,12.72
2023-05-04T00:48:33.941Z,12.67
2023-05-04T00:49:33.970Z,12.83
2023-05-04T00:50:33.935Z,12.97
2023-05-04T00:51:33.938Z,12.96
2023-05-04T00:52:33.994Z,13.07
2023-05-04T00:53:34.013Z,13.04
2023-05-04T00:54:34.100Z,12.90
2023-05-04T00:55:35.338Z,13.06
2023-05-04T00:56:34.191Z,13.29
2023-05-04T00:57:34.239Z,13.49
2023-05-04T00:58:34.243Z,13.65
2023-05-04T00:59:34.240Z,13.54
2023-05-04T01:00:34.308Z,13.36
2023-05-04T01:01:34.427Z,13.14
2023-05-04T01:02:34.466Z,12.92
2023-05-04T01:03:34.500Z,12.84
2023-05-04T01:04:34.484Z,12.92
2023-05-04T01:05:34.550Z,13.16
2023-05-04T01:06:34.549Z,13.37
2023-05-04T01:07:34.708Z,13.55
2023-05-04T01:08:34.711Z,13.71
2023-05-04T01:09:34.784Z,13.86
2023-05-04T01:10:34.857Z,13.65
2023-05-04T01:11:34.913Z,13.71
2023-05-04T01:12:34.983Z,13.61
2023-05-04T01:13:35.007Z,13.56
2023-05-04T01:14:35.052Z,13.67
2023-05-04T01:15:35.071Z,13.69
2023-05-04T01:16:35.173Z,13.73
2023-05-04T01:17:35.156Z,13.78
2023-05-04T01:18:35.151Z,13.63
2023-05-04T01:19:35.206Z,13.64
2023-05-04T01:20:35.219Z,13.50
2023-05-04T01:21:35.325Z,13.38
2023-05-04T01:22:35.263Z,13.37
2023-05-04T01:23:35.329Z,13.26
2023-05-04T01:24:35.397Z,13.47
2023-05-04T01:25:35.408Z,13.53
2023-05-04T01:26:35.403Z,13.66
2023-05-04T01:27:35.483Z,13.81
2023-05-04T01:28:35.386Z,13.87
2023-05-04T01:29:35.422Z,13.92
2023-05-04T01:30:35.403Z,13.93
2023-05-04T01:31:35.438Z,13.97
2023-05-04T01:32:35.516Z,13.93
2023-05-04T01:33:35.500Z,13.97
2023-05-04T01:34:35.601Z,13.98
2023-05-04T01:35:35.581Z,13.95
2023-05-04T01:36:35.608Z,14.01
2023-05-04T01:37:35.598Z,14.09
2023-05-04T01:38:35.607Z,13.95
2023-05-04T01:39:35.637Z,13.94
2023-05-04T01:40:35.709Z,13.98
2023-05-04T01:41:35.707Z,14.03
2023-05-04T01:42:35.724Z,14.06
2023-05-04T01:43:35.724Z,14.05
2023-05-04T01:44:35.808Z,14.07
2023-05-04T01:45:35.772Z,14.09
2023-05-04T01:46:36.013Z,14.06
2023-05-04T01:47:35.874Z,14.02
2023-05-04T01:48:35.864Z,14.05
2023-05-04T01:49:35.940Z,14.10
2023-05-04T01:50:35.943Z,14.16
2023-05-04T01:51:36.024Z,14.03
2023-05-04T01:52:35.920Z,14.01
2023-05-04T01:53:36.003Z,14.04
2023-05-04T01:54:35.973Z,14.04
2023-05-04T01:55:35.992Z,13.98
2023-05-04T01:56:36.179Z,13.93
2023-05-04T01:57:36.082Z,13.97
2023-05-04T01:58:36.161Z,14.04
2023-05-04T01:59:36.225Z,14.04
2023-05-04T02:00:36.280Z,14.08
2023-05-04T02:01:36.305Z,14.09
2023-05-04T02:02:36.277Z,14.01
2023-05-04T02:03:36.303Z,13.97
2023-05-04T02:04:36.311Z,13.98
2023-05-04T02:05:36.312Z,14.01
2023-05-04T02:06:36.329Z,14.03
2023-05-04T02:07:36.411Z,13.98
2023-05-04T02:08:36.456Z,13.98
2023-05-04T02:09:36.557Z,14.01
2023-05-04T02:10:37.090Z,14.02
2023-05-04T02:11:36.574Z,14.01
2023-05-04T02:12:36.672Z,14.00
2023-05-04T02:13:36.694Z,13.99
2023-05-04T02:14:36.799Z,13.95
2023-05-04T02:15:36.869Z,13.80
2023-05-04T02:16:36.883Z,13.84
2023-05-04T02:17:36.953Z,13.84
2023-05-04T02:18:36.935Z,13.80
2023-05-04T02:19:36.996Z,13.81
2023-05-04T02:20:37.051Z,13.77
2023-05-04T02:21:37.137Z,13.58
2023-05-04T02:22:37.151Z,13.43
2023-05-04T02:23:37.211Z,13.51
2023-05-04T02:24:37.285Z,13.54
2023-05-04T02:25:37.237Z,13.59
2023-05-04T02:26:37.285Z,13.57
2023-05-04T02:27:37.300Z,13.61
2023-05-04T02:28:37.304Z,13.58
2023-05-04T02:29:37.309Z,13.57
2023-05-04T02:30:37.320Z,13.57
2023-05-04T02:31:37.366Z,13.62
2023-05-04T02:32:37.498Z,13.67
2023-05-04T02:33:37.449Z,13.70
2023-05-04T02:34:37.568Z,13.73
2023-05-04T02:35:37.559Z,13.74
2023-05-04T02:36:37.563Z,13.66
2023-05-04T02:37:37.621Z,13.69
2023-05-04T02:38:37.688Z,13.68
2023-05-04T02:39:37.826Z,13.69
2023-05-04T02:40:37.787Z,13.59
2023-05-04T02:41:37.874Z,13.62
2023-05-04T02:42:38.002Z,13.64
2023-05-04T02:43:37.978Z,13.66
2023-05-04T02:44:38.037Z,13.70
2023-05-04T02:45:38.185Z,13.54
2023-05-04T02:46:38.148Z,13.57
2023-05-04T02:47:38.271Z,13.55
2023-05-04T02:48:38.256Z,13.60
2023-05-04T02:49:38.274Z,13.62
2023-05-04T02:50:38.333Z,13.59
2023-05-04T02:51:38.327Z,13.57
2023-05-04T02:52:38.331Z,13.57
2023-05-04T02:53:38.354Z,13.60
2023-05-04T02:54:38.419Z,13.61
2023-05-04T02:55:38.443Z,13.62
2023-05-04T02:56:38.476Z,13.62
2023-05-04T02:57:38.589Z,13.58
2023-05-04T02:58:38.540Z,13.53
2023-05-04T02:59:38.552Z,13.48
2023-05-04T03:00:38.609Z,13.50
2023-05-04T03:01:38.749Z,13.44
2023-05-04T03:02:38.713Z,12.94
2023-05-04T03:03:38.767Z,12.86
2023-05-04T03:04:38.910Z,12.96
2023-05-04T03:05:38.888Z,13.06
2023-05-04T03:06:38.904Z,13.15
2023-05-04T03:07:38.906Z,13.26
2023-05-04T03:08:38.969Z,13.30
2023-05-04T03:09:39.037Z,13.30
2023-05-04T03:10:39.054Z,13.23
2023-05-04T03:11:39.082Z,13.28
2023-05-04T03:12:39.131Z,13.32
2023-05-04T03:13:39.164Z,13.34
2023-05-04T03:14:39.212Z,13.38
2023-05-04T03:15:39.220Z,13.37
2023-05-04T03:16:39.277Z,13.42
2023-05-04T03:17:39.277Z,13.49
2023-05-04T03:18:39.240Z,13.51
2023-05-04T03:19:39.262Z,13.54
2023-05-04T03:20:39.255Z,13.57
2023-05-04T03:21:39.326Z,13.54
2023-05-04T03:22:39.312Z,13.59
2023-05-04T03:23:39.322Z,13.60
2023-05-04T03:24:39.345Z,13.60
2023-05-04T03:25:39.424Z,13.59
2023-05-04T03:26:39.445Z,13.60
2023-05-04T03:27:39.528Z,13.59
2023-05-04T03:28:39.512Z,13.52
2023-05-04T03:29:39.566Z,13.46
2023-05-04T03:30:39.529Z,13.40
2023-05-04T03:31:39.599Z,13.36
2023-05-04T03:32:39.589Z,13.34
2023-05-04T03:33:39.597Z,13.26
2023-05-04T03:34:39.660Z,13.27
2023-05-04T03:35:39.632Z,13.19
2023-05-04T03:36:39.588Z,13.19
2023-05-04T03:37:39.585Z,13.19
2023-05-04T03:38:39.635Z,13.19
2023-05-04T03:39:39.646Z,13.19
2023-05-04T03:40:39.657Z,13.20
2023-05-04T03:41:39.727Z,13.18
2023-05-04T03:42:39.771Z,13.20
2023-05-04T03:43:39.860Z,13.22
2023-05-04T03:44:39.882Z,13.19
2023-05-04T03:45:39.978Z,13.25
2023-05-04T03:46:39.904Z,13.26
2023-05-04T03:47:40.062Z,13.24
2023-05-04T03:48:40.076Z,13.24
2023-05-04T03:49:40.152Z,13.20
2023-05-04T03:50:40.197Z,13.17
2023-05-04T03:51:40.249Z,13.11
2023-05-04T03:52:40.278Z,13.16
2023-05-04T03:53:41.385Z,13.14
2023-05-04T03:54:40.461Z,13.10
2023-05-04T03:55:40.367Z,13.04
2023-05-04T03:56:40.485Z,12.99
2023-05-04T03:57:40.464Z,13.02
2023-05-04T03:58:40.463Z,13.00
2023-05-04T03:59:40.501Z,12.90
2023-05-04T04:00:40.530Z,12.85
2023-05-04T04:01:40.517Z,12.88
2023-05-04T04:02:40.592Z,12.88
2023-05-04T04:03:40.569Z,12.90
2023-05-04T04:04:40.726Z,12.89
2023-05-04T04:05:40.630Z,12.84
2023-05-04T04:06:41.999Z,12.92
2023-05-04T04:07:40.523Z,12.91
2023-05-04T04:08:40.565Z,12.91
2023-05-04T04:09:40.568Z,12.94
2023-05-04T04:10:40.548Z,12.93
2023-05-04T04:11:40.553Z,12.97
2023-05-04T04:12:40.541Z,12.98
2023-05-04T04:13:40.545Z,13.02
2023-05-04T04:14:40.524Z,13.00
2023-05-04T04:15:42.037Z,12.98
2023-05-04T04:16:40.568Z,12.96
2023-05-04T04:17:40.590Z,12.97
2023-05-04T04:18:40.498Z,12.95
2023-05-04T04:19:40.495Z,12.93
2023-05-04T04:20:40.502Z,12.94
2023-05-04T04:21:40.465Z,12.95
2023-05-04T04:22:40.452Z,12.98
2023-05-04T04:23:40.448Z,12.95
2023-05-04T04:24:40.493Z,12.83
2023-05-04T04:25:40.434Z,12.57
2023-05-04T04:26:40.453Z,12.28
2023-05-04T04:27:40.399Z,11.88
2023-05-04T04:28:40.397Z,12.00
2023-05-04T04:29:40.454Z,12.05
2023-05-04T04:30:40.441Z,11.83
2023-05-04T04:31:40.583Z,11.61
2023-05-04T04:32:40.539Z,11.65
2023-05-04T04:33:40.590Z,11.68
2023-05-04T04:34:40.558Z,11.92
2023-05-04T04:35:40.553Z,12.12
2023-05-04T04:36:40.559Z,12.14
2023-05-04T04:37:40.581Z,12.26
2023-05-04T04:38:40.584Z,12.33
2023-05-04T04:39:40.602Z,12.41
2023-05-04T04:40:40.599Z,12.51
2023-05-04T04:41:40.558Z,12.49
2023-05-04T04:42:40.581Z,12.35
2023-05-04T04:43:40.558Z,12.40
2023-05-04T04:44:40.608Z,12.45
2023-05-04T04:45:40.629Z,12.32
2023-05-04T04:46:40.704Z,12.16
2023-05-04T04:47:40.767Z,12.20
2023-05-04T04:48:40.809Z,11.90
2023-05-04T04:49:40.858Z,11.74
2023-05-04T04:50:40.956Z,11.96
2023-05-04T04:51:40.971Z,11.90
2023-05-04T04:52:41.029Z,11.74
2023-05-04T04:53:41.066Z,11.77
2023-05-04T04:54:41.107Z,11.86
2023-05-04T04:55:41.027Z,11.69
2023-05-04T04:56:41.011Z,11.77
2023-05-04T04:57:41.061Z,11.98
2023-05-04T04:58:41.131Z,12.21
2023-05-04T04:59:41.171Z,12.40
2023-05-04T05:00:41.207Z,12.41
2023-05-04T05:01:51.049Z,12.35
2023-05-04T05:02:41.288Z,12.37
2023-05-04T05:03:41.219Z,12.35
2023-05-04T05:04:41.270Z,12.32
2023-05-04T05:05:41.226Z,12.23
2023-05-04T05:06:41.159Z,12.35
2023-05-04T05:07:41.165Z,12.38
2023-05-04T05:08:41.165Z,12.46
2023-05-04T05:09:41.543Z,12.57
2023-05-04T05:10:43.738Z,12.53
2023-05-04T05:11:41.139Z,12.53
2023-05-04T05:12:41.157Z,12.53
2023-05-04T05:13:41.172Z,12.41
2023-05-04T05:14:41.104Z,12.36
2023-05-04T05:15:41.213Z,12.33
2023-05-04T05:16:41.237Z,12.23
2023-05-04T05:17:41.160Z,12.20
2023-05-04T05:18:41.182Z,12.28
2023-05-04T05:19:42.359Z,12.44
2023-05-04T05:20:41.095Z,12.44
2023-05-04T05:21:41.051Z,12.42
2023-05-04T05:22:41.142Z,12.41
2023-05-04T05:23:41.051Z,12.41
2023-05-04T05:24:41.108Z,12.37
2023-05-04T05:25:41.135Z,12.44
2023-05-04T05:26:41.028Z,12.51
2023-05-04T05:27:41.034Z,12.55
2023-05-04T05:28:41.052Z,12.63
2023-05-04T05:29:41.100Z,12.62
2023-05-04T05:30:41.057Z,12.59
2023-05-04T05:31:41.007Z,12.62
2023-05-04T05:32:41.459Z,12.50
2023-05-04T05:33:41.115Z,12.58
2023-05-04T05:34:40.982Z,12.75
2023-05-04T05:35:41.150Z,12.82
2023-05-04T05:36:41.002Z,12.97
2023-05-04T05:37:41.062Z,13.18
2023-05-04T05:38:40.976Z,13.26
2023-05-04T05:39:41.179Z,13.29
2023-05-04T05:40:41.164Z,13.57
2023-05-04T05:41:41.206Z,13.59
2023-05-04T05:42:41.011Z,13.58
2023-05-04T05:43:40.949Z,13.66
2023-05-04T05:44:41.365Z,13.59
2023-05-04T05:47:08.036Z,13.57
2023-05-04T05:48:00.451Z,13.32
2023-05-04T05:49:00.433Z,13.47
2023-05-04T05:50:01.118Z,13.49
2023-05-04T05:51:00.406Z,13.42
2023-05-04T05:52:00.391Z,13.51
2023-05-04T05:53:00.371Z,13.47
2023-05-04T05:54:00.373Z,13.37
2023-05-04T05:55:02.416Z,13.52
2023-05-04T05:56:00.485Z,13.63
2023-05-04T05:57:00.466Z,13.66
2023-05-04T05:58:00.499Z,13.73
2023-05-04T05:59:00.503Z,13.60
2023-05-04T06:00:00.560Z,13.69
2023-05-04T06:01:01.641Z,13.66
2023-05-04T06:02:00.648Z,13.77
2023-05-04T06:03:00.787Z,13.84
2023-05-04T06:04:01.860Z,13.77
2023-05-04T06:05:00.898Z,13.75
2023-05-04T06:06:01.172Z,13.70
2023-05-04T06:07:00.942Z,13.71
2023-05-04T06:08:00.955Z,13.51
2023-05-04T06:09:00.968Z,13.36
2023-05-04T06:10:01.104Z,13.25
2023-05-04T06:11:01.083Z,13.57
2023-05-04T06:12:01.049Z,13.49
2023-05-04T06:13:01.138Z,13.54
2023-05-04T06:14:01.149Z,13.70
2023-05-04T06:15:01.138Z,13.66
2023-05-04T06:16:01.301Z,13.64
2023-05-04T06:17:01.244Z,13.75
2023-05-04T06:18:01.374Z,13.71
2023-05-04T06:19:01.370Z,13.60
2023-05-04T06:20:01.400Z,13.65
2023-05-04T06:21:01.466Z,13.84
2023-05-04T06:22:01.606Z,13.98
2023-05-04T06:23:01.580Z,14.12
2023-05-04T06:24:01.591Z,13.92
2023-05-04T06:25:04.453Z,13.51
2023-05-04T06:26:01.632Z,13.23
2023-05-04T06:27:01.551Z,13.22
2023-05-04T06:28:01.622Z,13.02
2023-05-04T06:29:01.569Z,12.95
2023-05-04T06:30:01.669Z,13.00
2023-05-04T06:31:01.537Z,13.11
2023-05-04T06:32:01.609Z,13.11
2023-05-04T06:33:01.537Z,13.07
2023-05-04T06:34:01.548Z,13.10
2023-05-04T06:35:01.587Z,13.04
2023-05-04T06:36:01.655Z,12.99
2023-05-04T06:37:01.508Z,12.89
2023-05-04T06:38:01.481Z,12.86
2023-05-04T06:39:02.096Z,12.94
2023-05-04T06:40:01.508Z,13.03
2023-05-04T06:41:01.737Z,13.18
2023-05-04T06:42:01.509Z,13.31
2023-05-04T06:43:01.447Z,13.51
2023-05-04T06:44:01.471Z,13.71
2023-05-04T06:45:01.518Z,13.68
2023-05-04T06:46:01.692Z,13.79
2023-05-04T06:47:01.481Z,13.71
2023-05-04T06:48:01.621Z,13.62
2023-05-04T06:49:01.467Z,13.74
2023-05-04T06:50:01.412Z,13.84
2023-05-04T06:51:02.973Z,13.88
2023-05-04T06:52:02.159Z,13.96
2023-05-04T06:53:01.686Z,14.00
2023-05-04T06:54:01.724Z,14.25
2023-05-04T06:55:01.764Z,14.33
2023-05-04T06:56:01.869Z,14.54
2023-05-04T06:57:01.930Z,14.76
2023-05-04T06:58:02.634Z,14.78
2023-05-04T06:59:01.826Z,14.73
2023-05-04T07:00:01.911Z,14.49
2023-05-04T07:01:01.826Z,14.38
2023-05-04T07:02:02.605Z,14.15
2023-05-04T07:03:02.041Z,14.25
2023-05-04T07:04:01.955Z,14.58
2023-05-04T07:05:01.896Z,14.64
2023-05-04T07:06:01.901Z,14.85
2023-05-04T07:07:02.008Z,15.12
2023-05-04T07:08:01.921Z,15.32
2023-05-04T07:09:01.852Z,15.28
2023-05-04T07:10:01.995Z,15.12
2023-05-04T07:11:02.042Z,15.23
2023-05-04T07:12:02.019Z,15.17
2023-05-04T07:13:01.948Z,15.44
2023-05-04T07:14:02.673Z,15.52
2023-05-04T07:15:02.089Z,15.42
2023-05-04T07:16:02.106Z,15.49
2023-05-04T07:17:02.190Z,15.44
2023-05-04T07:18:02.311Z,15.52
2023-05-04T07:19:02.224Z,15.67
2023-05-04T07:20:02.434Z,15.63
2023-05-04T07:21:21.978Z,15.69
2023-05-04T07:22:03.343Z,15.73
2023-05-04T07:23:02.249Z,15.86
2023-05-04T07:24:02.310Z,15.99
2023-05-04T07:25:02.222Z,15.81
2023-05-04T07:26:02.226Z,15.98
2023-05-04T07:27:02.295Z,16.10
2023-05-04T07:28:02.248Z,16.17
2023-05-04T07:29:02.231Z,16.05
2023-05-04T07:30:02.315Z,15.93
2023-05-04T07:31:02.182Z,16.15
2023-05-04T07:32:02.725Z,16.43
2023-05-04T07:33:02.286Z,16.41
2023-05-04T07:34:02.309Z,16.43
2023-05-04T07:35:03.120Z,16.54
2023-05-04T07:36:02.345Z,16.59
2023-05-04T07:37:02.599Z,16.72
2023-05-04T07:38:02.517Z,16.56
2023-05-04T07:39:02.521Z,16.78
2023-05-04T07:40:02.713Z,16.96
2023-05-04T07:41:02.565Z,16.94
2023-05-04T07:42:02.771Z,16.66
2023-05-04T07:43:02.582Z,16.81
2023-05-04T07:44:02.642Z,16.62
2023-05-04T07:45:03.096Z,16.55
2023-05-04T07:46:02.800Z,16.60
2023-05-04T07:47:03.195Z,16.43
2023-05-04T07:48:02.857Z,16.37
2023-05-04T07:49:02.794Z,16.32
2023-05-04T07:50:02.973Z,16.56
2023-05-04T07:51:02.904Z,16.77
2023-05-04T07:52:02.948Z,17.07
2023-05-04T07:53:03.644Z,17.09
2023-05-04T07:54:03.037Z,17.04
2023-05-04T07:55:03.177Z,17.02
2023-05-04T07:56:03.083Z,16.96
2023-05-04T07:57:03.168Z,16.84
2023-05-04T07:58:03.093Z,16.93
2023-05-04T07:59:03.189Z,16.86
2023-05-04T08:00:03.589Z,17.02
2023-05-04T08:01:03.239Z,17.14
2023-05-04T08:02:03.716Z,17.16
2023-05-04T08:03:03.646Z,17.26
2023-05-04T08:04:03.302Z,17.28
2023-05-04T08:05:03.329Z,17.52
2023-05-04T08:06:03.343Z,17.76
2023-05-04T08:07:03.315Z,17.86
2023-05-04T08:08:03.349Z,18.05
2023-05-04T08:09:03.350Z,18.17
2023-05-04T08:10:03.610Z,18.19
2023-05-04T08:11:15.901Z,17.97
2023-05-04T08:12:04.608Z,17.76
2023-05-04T08:13:03.445Z,17.75
2023-05-04T08:14:03.405Z,17.65
2023-05-04T08:15:03.642Z,17.34
2023-05-04T08:16:03.382Z,17.14
2023-05-04T08:17:04.188Z,17.20
2023-05-04T08:18:03.438Z,17.28
2023-05-04T08:19:03.444Z,17.52
2023-05-04T08:20:03.613Z,17.88
2023-05-04T08:21:03.564Z,18.20
2023-05-04T08:22:03.650Z,18.36
2023-05-04T08:23:03.535Z,18.59
2023-05-04T08:24:03.663Z,18.82
2023-05-04T08:25:03.892Z,18.95
2023-05-04T08:26:03.810Z,19.13
2023-05-04T08:27:08.699Z,19.11
2023-05-04T08:28:04.793Z,19.16
2023-05-04T08:29:03.757Z,19.15
2023-05-04T08:30:03.824Z,19.15
2023-05-04T08:31:03.812Z,18.98
2023-05-04T08:32:04.287Z,19.00
2023-05-04T08:33:03.698Z,18.94
2023-05-04T08:34:03.775Z,18.87
2023-05-04T08:35:04.080Z,19.01
2023-05-04T08:36:03.770Z,19.16
2023-05-04T08:37:04.692Z,19.21
2023-05-04T08:38:03.758Z,19.32
2023-05-04T08:39:03.865Z,19.10
2023-05-04T08:40:03.880Z,18.74
2023-05-04T08:41:03.888Z,18.44
2023-05-04T08:42:03.994Z,18.46
2023-05-04T08:43:03.985Z,18.69
2023-05-04T08:44:03.985Z,18.99
2023-05-04T08:45:04.288Z,19.09
2023-05-04T08:46:04.101Z,19.09
2023-05-04T08:47:04.083Z,19.32
2023-05-04T08:48:04.110Z,19.54
2023-05-04T08:49:04.151Z,19.75
2023-05-04T08:50:04.129Z,19.85
2023-05-04T08:51:04.437Z,19.96
2023-05-04T08:52:04.699Z,20.04
2023-05-04T08:53:04.278Z,20.23
2023-05-04T08:54:04.365Z,20.36
2023-05-04T08:55:04.481Z,20.42
2023-05-04T08:56:04.664Z,20.35
2023-05-04T08:57:04.401Z,20.14
2023-05-04T08:58:04.757Z,20.15
2023-05-04T08:59:04.462Z,20.16
2023-05-04T09:00:04.646Z,20.27
2023-05-04T09:01:04.622Z,20.36
2023-05-04T09:02:04.828Z,20.48
2023-05-04T09:03:04.754Z,20.63
2023-05-04T09:04:04.845Z,20.74
2023-05-04T09:05:05.816Z,20.78
2023-05-04T09:06:04.827Z,20.41
2023-05-04T09:07:04.879Z,20.21
2023-05-04T09:08:04.900Z,20.18
2023-05-04T09:09:04.905Z,20.32
2023-05-04T09:10:04.914Z,20.42
2023-05-04T09:11:04.914Z,20.63
2023-05-04T09:12:05.537Z,20.72
2023-05-04T09:13:05.077Z,20.81
2023-05-04T09:14:05.044Z,20.95
2023-05-04T09:15:05.559Z,21.08
2023-05-04T09:16:05.161Z,21.16
2023-05-04T09:17:05.210Z,21.20
2023-05-04T09:18:06.235Z,21.13
2023-05-04T09:19:05.293Z,21.09
2023-05-04T09:20:06.156Z,21.20
2023-05-04T09:21:05.299Z,21.25
2023-05-04T09:22:05.289Z,21.28
2023-05-04T09:23:05.365Z,21.23
2023-05-04T09:24:05.384Z,21.34
2023-05-04T09:25:06.379Z,21.46
2023-05-04T09:26:05.365Z,21.41
2023-05-04T09:27:05.404Z,21.41
2023-05-04T09:28:05.432Z,21.35
2023-05-04T09:29:05.557Z,21.30
2023-05-04T09:30:05.576Z,21.34
2023-05-04T09:31:05.638Z,21.38
2023-05-04T09:32:05.678Z,21.56
2023-05-04T09:33:05.758Z,21.67
2023-05-04T09:34:05.772Z,21.39
2023-05-04T09:35:06.019Z,21.49
2023-05-04T09:36:05.804Z,21.63
2023-05-04T09:37:05.888Z,21.62
2023-05-04T09:38:06.156Z,21.62
2023-05-04T09:39:05.842Z,21.41
2023-05-04T09:40:05.863Z,21.43
2023-05-04T09:41:05.939Z,21.62
2023-05-04T09:42:05.992Z,21.74
2023-05-04T09:43:06.070Z,21.83
2023-05-04T09:44:06.068Z,21.76
2023-05-04T09:45:06.371Z,21.63
2023-05-04T09:46:06.087Z,21.65
2023-05-04T09:47:06.069Z,21.53
2023-05-04T09:48:06.188Z,21.37
2023-05-04T09:49:06.195Z,21.54
2023-05-04T09:50:06.235Z,21.69
2023-05-04T09:51:06.207Z,21.77
2023-05-04T09:52:06.235Z,21.67
2023-05-04T09:53:06.848Z,21.82
2023-05-04T09:54:07.263Z,21.90
2023-05-04T09:55:06.505Z,21.98
2023-05-04T09:56:08.110Z,22.02
2023-05-04T09:57:06.278Z,22.05
2023-05-04T09:58:06.393Z,22.09
2023-05-04T09:59:06.376Z,21.95
2023-05-04T10:00:06.462Z,21.96
2023-05-04T10:01:06.508Z,21.91
2023-05-04T10:02:18.177Z,22.03
2023-05-04T10:03:07.903Z,22.10
2023-05-04T10:04:06.632Z,22.25
2023-05-04T10:05:07.398Z,22.16
2023-05-04T10:06:06.622Z,22.13
2023-05-04T10:07:06.672Z,22.33
2023-05-04T10:08:06.859Z,22.36
2023-05-04T10:09:06.813Z,22.23
2023-05-04T10:10:07.283Z,22.32
2023-05-04T10:11:06.667Z,22.38
2023-05-04T10:12:06.874Z,22.51
2023-05-04T10:13:07.113Z,22.52
2023-05-04T10:14:06.637Z,22.60
2023-05-04T10:15:07.053Z,22.72
2023-05-04T10:16:06.567Z,22.71
2023-05-04T10:17:06.534Z,22.56
2023-05-04T10:18:07.020Z,22.65
2023-05-04T10:19:06.763Z,22.68
2023-05-04T10:20:06.727Z,22.93
2023-05-04T10:21:06.831Z,23.08
2023-05-04T10:22:06.954Z,22.67
2023-05-04T10:23:07.066Z,22.75
2023-05-04T10:24:06.892Z,22.85
2023-05-04T10:25:07.033Z,22.93
2023-05-04T10:26:06.886Z,22.68
2023-05-04T10:27:06.975Z,22.71
2023-05-04T10:28:07.337Z,22.83
2023-05-04T10:29:07.119Z,22.75
2023-05-04T10:30:07.108Z,22.70
2023-05-04T10:31:07.124Z,22.69
2023-05-04T10:32:07.159Z,22.69
2023-05-04T10:33:07.402Z,22.81
2023-05-04T10:34:07.316Z,22.92
2023-05-04T10:35:07.582Z,22.70
2023-05-04T10:36:07.371Z,22.56
2023-05-04T10:37:07.367Z,22.68
2023-05-04T10:38:08.014Z,22.90
2023-05-04T10:39:07.484Z,22.81
2023-05-04T10:40:08.137Z,23.00
2023-05-04T10:41:07.473Z,23.24
2023-05-04T10:42:07.561Z,23.44
2023-05-04T10:43:07.823Z,23.63
2023-05-04T10:44:07.517Z,23.58
2023-05-04T10:45:07.554Z,23.48
2023-05-04T10:46:07.700Z,23.47
2023-05-04T10:47:07.666Z,23.52
2023-05-04T10:48:07.950Z,23.53
2023-05-04T10:49:07.763Z,23.41
2023-05-04T10:50:07.763Z,23.39
2023-05-04T10:51:07.856Z,23.42
2023-05-04T10:52:07.849Z,23.53
2023-05-04T10:53:07.980Z,23.63
2023-05-04T10:54:08.301Z,23.72
2023-05-04T10:55:08.003Z,23.86
2023-05-04T10:56:08.002Z,23.91
2023-05-04T10:57:08.114Z,24.00
2023-05-04T10:58:08.227Z,23.97
2023-05-04T10:59:08.131Z,24.07
2023-05-04T11:00:08.270Z,24.03
2023-05-04T11:01:08.369Z,23.98
2023-05-04T11:02:08.421Z,23.79
2023-05-04T11:03:08.339Z,23.95
2023-05-04T11:04:08.331Z,24.10
2023-05-04T11:05:08.644Z,24.18
2023-05-04T11:06:08.582Z,24.21
2023-05-04T11:07:08.463Z,24.13
2023-05-04T11:08:08.500Z,24.19
2023-05-04T11:09:08.510Z,24.39
2023-05-04T11:10:08.608Z,24.46
2023-05-04T11:11:08.609Z,24.39
2023-05-04T11:12:08.625Z,24.39
2023-05-04T11:13:08.658Z,24.27
2023-05-04T11:14:08.766Z,24.27
2023-05-04T11:15:08.755Z,24.27
2023-05-04T11:16:08.741Z,24.31
2023-05-04T11:17:15.987Z,24.49
2023-05-04T11:18:10.845Z,24.61
2023-05-04T11:19:08.802Z,24.62
2023-05-04T11:20:08.872Z,24.65
2023-05-04T11:21:08.788Z,24.49
2023-05-04T11:22:08.823Z,24.69
2023-05-04T11:23:08.805Z,24.82
2023-05-04T11:24:09.229Z,24.85
2023-05-04T11:25:08.705Z,24.96
2023-05-04T11:26:09.290Z,25.03
2023-05-04T11:27:08.731Z,25.10
2023-05-04T11:28:08.742Z,25.05
2023-05-04T11:29:09.755Z,24.98
2023-05-04T11:30:08.861Z,24.83
2023-05-04T11:31:08.948Z,24.07
2023-05-04T11:32:08.867Z,23.40
2023-05-04T11:33:08.994Z,22.95
2023-05-04T11:34:09.279Z,22.78
2023-05-04T11:35:09.057Z,22.86
2023-05-04T11:36:08.996Z,23.14
2023-05-04T11:37:09.012Z,23.26
2023-05-04T11:38:09.064Z,23.38
2023-05-04T11:39:09.158Z,23.55
2023-05-04T11:40:09.155Z,23.78
2023-05-04T11:41:09.135Z,24.01
2023-05-04T11:42:09.101Z,24.19
2023-05-04T11:43:09.169Z,24.29
2023-05-04T11:44:09.169Z,24.37
2023-05-04T11:45:09.166Z,24.45
2023-05-04T11:46:09.261Z,24.57
2023-05-04T11:47:09.246Z,24.61
2023-05-04T11:48:09.305Z,24.47
2023-05-04T11:49:09.408Z,24.36
2023-05-04T11:50:09.309Z,24.00
2023-05-04T11:51:09.359Z,23.91
2023-05-04T11:52:09.432Z,23.83
2023-05-04T11:53:09.694Z,23.89
2023-05-04T11:54:09.745Z,24.00
2023-05-04T11:55:09.542Z,24.13
2023-05-04T11:56:09.435Z,24.23
2023-05-04T11:57:09.430Z,24.48
2023-05-04T11:58:09.344Z,24.66
2023-05-04T11:59:09.463Z,24.81
2023-05-04T12:00:09.386Z,24.81
2023-05-04T12:01:09.452Z,24.82
2023-05-04T12:02:09.444Z,24.99
2023-05-04T12:03:09.575Z,25.08
2023-05-04T12:04:09.566Z,24.89
2023-05-04T12:05:09.767Z,24.71
2023-05-04T12:06:09.563Z,24.64
2023-05-04T12:07:09.612Z,24.66
2023-05-04T12:08:09.643Z,24.41
2023-05-04T12:09:09.683Z,24.30
2023-05-04T12:10:09.723Z,24.41
2023-05-04T12:11:09.790Z,24.58
2023-05-04T12:12:09.821Z,24.87
2023-05-04T12:13:09.925Z,25.04
2023-05-04T12:14:09.941Z,25.13
2023-05-04T12:15:09.864Z,25.22
2023-05-04T12:16:09.933Z,25.35
2023-05-04T12:17:09.879Z,25.48
2023-05-04T12:18:10.007Z,25.49
2023-05-04T12:19:10.041Z,25.48
2023-05-04T12:20:10.004Z,25.69
2023-05-04T12:21:10.121Z,25.87
2023-05-04T12:22:10.014Z,25.99
2023-05-04T12:23:10.098Z,25.99
2023-05-04T12:24:10.162Z,25.96
2023-05-04T12:25:10.229Z,26.01
2023-05-04T12:26:10.159Z,25.49
2023-05-04T12:27:10.218Z,25.38
2023-05-04T12:28:10.222Z,25.53
2023-05-04T12:29:10.296Z,25.35
2023-05-04T12:30:10.353Z,25.25
2023-05-04T12:31:10.648Z,25.53
2023-05-04T12:32:10.569Z,25.71
2023-05-04T12:33:10.432Z,25.65
2023-05-04T12:34:10.484Z,25.81
2023-05-04T12:35:10.807Z,25.64
2023-05-04T12:36:10.652Z,25.79
2023-05-04T12:37:10.684Z,25.72
2023-05-04T12:38:10.639Z,25.72
2023-05-04T12:39:10.632Z,25.83
2023-05-04T12:40:21.045Z,25.91
2023-05-04T12:41:11.604Z,25.87
2023-05-04T12:42:10.633Z,25.95
2023-05-04T12:43:10.714Z,26.08
2023-05-04T12:44:10.590Z,26.19
2023-05-04T12:45:10.617Z,26.23
2023-05-04T12:46:10.735Z,26.38
2023-05-04T12:47:10.596Z,26.46
2023-05-04T12:48:11.182Z,26.53
2023-05-04T12:49:10.580Z,26.59
2023-05-04T12:50:10.630Z,26.65
2023-05-04T12:51:10.540Z,26.78
2023-05-04T12:52:10.533Z,26.85
2023-05-04T12:53:10.556Z,26.92
2023-05-04T12:54:10.656Z,26.96